Terminal Aerodrome Forecast
Issued by NWS Tuscon, AZ

Home | Current Version | Previous Version | Text Only | Print | Product List | Glossary On
Versions: 1 2 3 4 5 6 7 8 9 10 11 12 13 14 15 16 17 18
000
FTUS45 KTWC 010537
TAFTUS
TAF
KTUS 010537Z 0106/0206 11006KT P6SM SCT070 BKN120 OVC220
     FM010900 14007KT P6SM SCT120 BKN250
     FM011700 VRB05KT P6SM SCT250
     FM012000 21008KT P6SM SCT080 BKN140
     FM012200 22008KT P6SM VCTS SCT080CB BKN120
     FM020100 27009KT P6SM VCSH SCT080 BKN130=

USA.gov is the U.S. government's official web portal to all federal, state and local government web resources and services.